createdAt,value
2022-08-05T00:01:36.145Z,26.19
2022-08-05T00:04:17.962Z,26.16
2022-08-05T00:06:51.565Z,26.11
2022-08-05T00:09:21.821Z,26.08
2022-08-05T00:11:56.136Z,26.06
2022-08-05T00:14:29.449Z,26.01
2022-08-05T00:17:02.105Z,25.97
2022-08-05T00:19:33.551Z,25.93
2022-08-05T00:22:11.428Z,25.88
2022-08-05T00:24:42.403Z,25.86
2022-08-05T00:27:16.579Z,25.81
2022-08-05T00:29:45.297Z,25.78
2022-08-05T00:32:15.285Z,25.75
2022-08-05T00:35:04.856Z,25.69
2022-08-05T00:37:53.316Z,25.67
2022-08-05T00:40:29.017Z,25.61
2022-08-05T00:43:01.556Z,25.56
2022-08-05T00:45:43.523Z,25.54
2022-08-05T00:48:13.811Z,25.51
2022-08-05T00:50:46.032Z,25.48
2022-08-05T00:53:59.797Z,25.45
2022-08-05T00:56:07.886Z,25.41
2022-08-05T00:58:36.853Z,25.38
2022-08-05T01:01:08.896Z,25.35
2022-08-05T01:03:38.234Z,25.31
2022-08-05T01:06:14.005Z,25.30
2022-08-05T01:08:44.803Z,25.27
2022-08-05T01:11:33.532Z,25.22
2022-08-05T01:14:15.362Z,25.15
2022-08-05T01:16:50.714Z,25.11
2022-08-05T01:20:01.853Z,25.09
2022-08-05T01:22:46.977Z,25.03
2022-08-05T01:25:53.210Z,24.98
2022-08-05T01:28:39.514Z,24.97
2022-08-05T01:31:13.855Z,24.95
2022-08-05T01:33:52.006Z,24.92
2022-08-05T01:36:27.917Z,24.91
2022-08-05T01:39:00.372Z,24.88
2022-08-05T01:41:35.151Z,24.85
2022-08-05T01:44:09.956Z,24.80
2022-08-05T01:49:24.075Z,24.76
2022-08-05T01:51:58.718Z,24.72
2022-08-05T01:54:32.958Z,24.70
2022-08-05T01:58:11.440Z,24.68
2022-08-05T01:59:54.212Z,24.64
2022-08-05T02:02:28.378Z,24.60
2022-08-05T02:05:01.716Z,24.56
2022-08-05T02:07:32.289Z,24.54
2022-08-05T02:10:03.085Z,24.51
2022-08-05T02:12:40.351Z,24.46
2022-08-05T02:15:15.613Z,24.44
2022-08-05T02:18:32.282Z,24.40
2022-08-05T02:20:49.535Z,24.37
2022-08-05T02:23:24.776Z,24.32
2022-08-05T02:25:54.983Z,24.33
2022-08-05T02:28:32.150Z,24.30
2022-08-05T02:31:14.476Z,24.26
2022-08-05T02:33:57.284Z,24.24
2022-08-05T02:36:31.237Z,24.22
2022-08-05T02:39:04.577Z,24.19
2022-08-05T02:41:58.199Z,24.16
2022-08-05T02:44:28.388Z,24.15
2022-08-05T02:47:00.878Z,24.14
2022-08-05T02:49:37.732Z,24.12
2022-08-05T02:52:13.533Z,24.09
2022-08-05T02:54:55.951Z,24.06
2022-08-05T02:58:10.619Z,24.02
2022-08-05T03:00:15.516Z,24.02
2022-08-05T03:02:48.031Z,24.01
2022-08-05T03:05:17.503Z,23.98
2022-08-05T03:08:04.526Z,24.00
2022-08-05T03:10:37.135Z,23.96
2022-08-05T03:13:16.813Z,23.94
2022-08-05T03:15:46.029Z,23.91
2022-08-05T03:18:17.335Z,23.90
2022-08-05T03:20:48.748Z,23.88
2022-08-05T03:23:18.870Z,23.86
2022-08-05T03:26:30.354Z,23.83
2022-08-05T03:28:41.019Z,23.76
2022-08-05T03:31:10.217Z,23.76
2022-08-05T03:33:51.032Z,23.72
2022-08-05T03:36:30.171Z,23.70
2022-08-05T03:38:59.552Z,23.70
2022-08-05T03:41:33.164Z,23.69
2022-08-05T03:44:11.628Z,23.66
2022-08-05T03:46:40.456Z,23.63
2022-08-05T03:49:10.511Z,23.59
2022-08-05T03:52:50.308Z,23.59
2022-08-05T03:55:50.693Z,23.55
2022-08-05T03:57:41.855Z,23.51
2022-08-05T04:00:16.002Z,23.50
2022-08-05T04:02:51.967Z,23.48
2022-08-05T04:05:23.188Z,23.47
2022-08-05T04:07:58.562Z,23.45
2022-08-05T04:10:32.140Z,23.41
2022-08-05T04:13:07.602Z,23.41
2022-08-05T04:15:36.821Z,23.39
2022-08-05T04:18:09.259Z,23.38
2022-08-05T04:20:41.285Z,23.37
2022-08-05T04:23:12.523Z,23.36
2022-08-05T04:26:00.413Z,23.35
2022-08-05T04:28:30.897Z,23.35
2022-08-05T04:31:01.479Z,23.35
2022-08-05T04:34:17.302Z,23.36
2022-08-05T04:36:49.431Z,23.38
2022-08-05T04:39:09.630Z,23.38
2022-08-05T04:41:39.830Z,23.38
2022-08-05T04:44:09.964Z,23.39
2022-08-05T04:46:39.223Z,23.42
2022-08-05T04:49:12.438Z,23.45
2022-08-05T04:51:45.362Z,23.48
2022-08-05T04:54:14.932Z,23.50
2022-08-05T04:56:43.859Z,23.53
2022-08-05T04:59:21.884Z,23.55
2022-08-05T05:02:07.947Z,23.57
2022-08-05T05:04:44.143Z,23.60
2022-08-05T05:07:18.384Z,23.63
2022-08-05T05:09:57.598Z,23.67
2022-08-05T05:12:27.394Z,23.72
2022-08-05T05:14:56.565Z,23.75
2022-08-05T05:17:57.128Z,23.79
2022-08-05T05:20:15.215Z,23.84
2022-08-05T05:22:50.350Z,23.87
2022-08-05T05:25:18.764Z,23.91
2022-08-05T05:27:48.545Z,23.95
2022-08-05T05:30:29.358Z,24.00
2022-08-05T05:33:09.069Z,24.06
2022-08-05T05:35:46.874Z,24.10
2022-08-05T05:38:22.482Z,24.16
2022-08-05T05:40:57.076Z,24.22
2022-08-05T05:43:57.548Z,24.30
2022-08-05T05:46:17.483Z,24.40
2022-08-05T05:48:48.558Z,24.47
2022-08-05T05:51:27.822Z,24.55
2022-08-05T05:53:59.905Z,24.61
2022-08-05T05:56:33.255Z,24.69
2022-08-05T05:59:05.298Z,24.77
2022-08-05T06:01:37.406Z,24.87
2022-08-05T06:04:11.528Z,24.94
2022-08-05T06:06:42.588Z,25.03
2022-08-05T06:09:16.789Z,25.14
2022-08-05T06:12:01.401Z,25.25
2022-08-05T06:14:31.138Z,25.35
2022-08-05T06:17:02.179Z,25.47
2022-08-05T06:19:56.566Z,25.59
2022-08-05T06:22:29.488Z,25.72
2022-08-05T06:24:59.499Z,25.84
2022-08-05T06:28:11.284Z,25.97
2022-08-05T06:30:19.953Z,26.12
2022-08-05T06:32:50.623Z,26.25
2022-08-05T06:36:04.002Z,26.40
2022-08-05T06:38:11.332Z,26.53
2022-08-05T06:40:44.295Z,26.65
2022-08-05T06:43:57.743Z,26.79
2022-08-05T06:46:03.977Z,26.92
2022-08-05T06:48:56.298Z,27.07
2022-08-05T06:51:30.058Z,27.23
2022-08-05T06:53:59.896Z,27.39
2022-08-05T06:56:30.389Z,27.53
2022-08-05T06:59:03.256Z,27.68
2022-08-05T07:01:32.940Z,27.81
2022-08-05T07:04:03.171Z,27.96
2022-08-05T07:06:32.185Z,28.12
2022-08-05T07:09:04.160Z,28.26
2022-08-05T07:11:36.765Z,28.42
2022-08-05T07:14:29.951Z,28.57
2022-08-05T07:18:02.209Z,28.76
2022-08-05T07:22:42.569Z,29.11
2022-08-05T07:25:54.068Z,29.29
2022-08-05T07:28:05.841Z,29.48
2022-08-05T07:30:39.997Z,29.66
2022-08-05T07:33:16.467Z,29.82
2022-08-05T07:36:02.653Z,29.98
2022-08-05T07:38:43.121Z,30.15
2022-08-05T07:42:09.015Z,30.30
2022-08-05T07:44:14.197Z,30.46
2022-08-05T07:46:49.641Z,30.61
2022-08-05T07:49:19.448Z,30.74
2022-08-05T07:51:52.994Z,30.89
2022-08-05T07:54:31.699Z,31.01
2022-08-05T07:57:13.993Z,31.14
2022-08-05T07:59:53.717Z,31.28
2022-08-05T08:02:31.392Z,31.41
2022-08-05T08:05:15.310Z,31.58
2022-08-05T08:08:00.256Z,31.71
2022-08-05T08:10:29.537Z,31.86
2022-08-05T08:12:58.964Z,32.01
2022-08-05T08:16:33.404Z,32.16
2022-08-05T08:18:20.841Z,32.28
2022-08-05T08:21:01.907Z,32.41
2022-08-05T08:24:01.327Z,32.55
2022-08-05T08:26:26.915Z,32.71
2022-08-05T08:29:21.499Z,32.84
2022-08-05T08:31:49.490Z,32.92
2022-08-05T08:34:18.577Z,33.07
2022-08-05T08:36:50.554Z,33.14
2022-08-05T08:39:24.684Z,33.30
2022-08-05T08:41:59.832Z,33.42
2022-08-05T08:45:16.431Z,33.49
2022-08-05T08:48:07.620Z,33.62
2022-08-05T08:50:30.365Z,33.73
2022-08-05T08:53:07.907Z,33.85
2022-08-05T08:56:02.948Z,33.99
2022-08-05T08:58:37.458Z,34.12
2022-08-05T09:01:15.776Z,34.26
2022-08-05T09:03:54.458Z,34.38
2022-08-05T09:06:28.127Z,34.55
2022-08-05T09:09:00.023Z,34.71
2022-08-05T09:11:51.393Z,34.86
2022-08-05T09:14:57.544Z,34.96
2022-08-05T09:17:09.510Z,35.09
2022-08-05T09:19:55.417Z,35.20
2022-08-05T09:22:31.850Z,35.30
2022-08-05T09:25:13.922Z,35.38
2022-08-05T09:28:05.874Z,35.47
2022-08-05T09:30:35.715Z,35.58
2022-08-05T09:33:07.512Z,35.70
2022-08-05T09:35:37.755Z,35.77
2022-08-05T09:38:12.035Z,35.85
2022-08-05T09:40:52.441Z,35.95
2022-08-05T09:43:40.857Z,36.06
2022-08-05T09:46:28.301Z,36.16
2022-08-05T09:49:07.168Z,36.29
2022-08-05T09:51:49.907Z,36.39
2022-08-05T09:54:31.188Z,36.48
2022-08-05T09:57:01.717Z,36.58
2022-08-05T09:59:36.947Z,36.70
2022-08-05T10:02:07.087Z,36.84
2022-08-05T10:04:41.062Z,36.91
2022-08-05T10:07:20.098Z,37.00
2022-08-05T10:10:14.339Z,37.11
2022-08-05T10:12:50.433Z,37.19
2022-08-05T10:15:26.187Z,37.26
2022-08-05T10:18:16.662Z,37.27
2022-08-05T10:20:48.593Z,37.29
2022-08-05T10:23:55.828Z,37.35
2022-08-05T10:26:14.409Z,37.39
2022-08-05T10:28:45.049Z,37.48
2022-08-05T10:32:52.644Z,37.54
2022-08-05T10:34:07.139Z,37.63
2022-08-05T10:36:38.264Z,37.70
2022-08-05T10:39:24.889Z,37.76
2022-08-05T10:42:11.357Z,37.82
2022-08-05T10:44:45.071Z,37.89
2022-08-05T10:47:26.457Z,37.96
2022-08-05T10:50:20.754Z,38.03
2022-08-05T10:52:58.569Z,38.12
2022-08-05T10:55:32.717Z,38.15
2022-08-05T10:58:11.713Z,38.20
2022-08-05T11:00:48.424Z,38.28
2022-08-05T11:03:26.861Z,38.37
2022-08-05T11:06:15.196Z,38.43
2022-08-05T11:09:16.336Z,38.49
2022-08-05T11:11:53.544Z,38.56
2022-08-05T11:15:01.193Z,38.62
2022-08-05T11:17:56.871Z,38.69
2022-08-05T11:20:44.143Z,38.70
2022-08-05T11:24:05.660Z,38.76
2022-08-05T11:26:43.337Z,38.84
2022-08-05T11:29:37.604Z,38.86
2022-08-05T11:32:28.433Z,38.95
2022-08-05T11:34:58.318Z,38.99
2022-08-05T11:38:30.793Z,38.99
2022-08-05T11:41:35.426Z,38.99
2022-08-05T11:44:05.933Z,39.01
2022-08-05T11:46:58.134Z,39.00
2022-08-05T11:49:29.098Z,39.03
2022-08-05T11:52:08.716Z,39.09
2022-08-05T11:54:41.519Z,39.14
2022-08-05T11:57:25.230Z,39.15
2022-08-05T11:59:56.339Z,39.19
2022-08-05T12:02:33.424Z,39.28
2022-08-05T12:05:08.122Z,39.39
2022-08-05T12:08:07.900Z,39.41
2022-08-05T12:10:46.120Z,39.40
2022-08-05T12:13:28.187Z,39.40
2022-08-05T12:16:14.580Z,39.43
2022-08-05T12:18:49.384Z,39.42
2022-08-05T12:21:24.852Z,39.44
2022-08-05T12:23:59.951Z,39.39
2022-08-05T12:26:34.221Z,39.37
2022-08-05T12:29:03.211Z,39.35
2022-08-05T12:31:47.680Z,39.31
2022-08-05T12:34:23.547Z,39.28
2022-08-05T12:36:54.285Z,39.28
2022-08-05T12:39:28.140Z,39.28
2022-08-05T12:42:14.419Z,39.26
2022-08-05T12:44:45.696Z,39.28
2022-08-05T12:47:17.193Z,39.32
2022-08-05T12:50:04.560Z,39.34
2022-08-05T12:52:39.293Z,39.37
2022-08-05T12:55:25.392Z,39.38
2022-08-05T12:58:50.632Z,39.44
2022-08-05T13:02:04.266Z,39.49
2022-08-05T13:03:41.810Z,39.55
2022-08-05T13:06:16.355Z,39.59
2022-08-05T13:08:50.892Z,39.62
2022-08-05T13:11:59.634Z,39.63
2022-08-05T13:14:25.104Z,39.67
2022-08-05T13:17:10.697Z,39.71
2022-08-05T13:19:51.043Z,39.80
2022-08-05T13:22:28.155Z,39.80
2022-08-05T13:25:05.822Z,39.79
2022-08-05T13:27:39.695Z,39.78
2022-08-05T13:30:34.138Z,39.81
2022-08-05T13:33:01.488Z,39.83
2022-08-05T13:35:43.101Z,39.86
2022-08-05T13:38:31.170Z,39.89
2022-08-05T13:41:04.846Z,39.85
2022-08-05T13:43:45.689Z,39.89
2022-08-05T13:46:43.836Z,39.90
2022-08-05T13:49:12.724Z,39.88
2022-08-05T13:51:46.110Z,39.92
2022-08-05T13:54:20.983Z,39.91
2022-08-05T13:56:53.759Z,39.89
2022-08-05T13:59:24.217Z,39.91
2022-08-05T14:01:58.242Z,39.91
2022-08-05T14:04:50.348Z,39.90
2022-08-05T14:07:56.290Z,39.86
2022-08-05T14:10:19.270Z,39.79
2022-08-05T14:12:57.966Z,39.74
2022-08-05T14:16:08.431Z,39.69
2022-08-05T14:18:17.443Z,39.62
2022-08-05T14:20:48.609Z,39.54
2022-08-05T14:23:19.097Z,39.46
2022-08-05T14:25:57.981Z,39.39
2022-08-05T14:28:28.464Z,39.35
2022-08-05T14:30:57.215Z,39.31
2022-08-05T14:33:25.594Z,39.26
2022-08-05T14:35:54.929Z,39.22
2022-08-05T14:38:31.884Z,39.16
2022-08-05T14:41:06.156Z,39.10
2022-08-05T14:43:57.500Z,39.08
2022-08-05T14:46:28.828Z,39.04
2022-08-05T14:49:03.515Z,39.00
2022-08-05T14:51:37.710Z,38.97
2022-08-05T14:54:28.002Z,38.96
2022-08-05T14:56:57.444Z,38.91
2022-08-05T14:59:29.794Z,38.86
2022-08-05T15:02:15.843Z,38.83
2022-08-05T15:04:47.655Z,38.80
2022-08-05T15:08:08.738Z,38.83
2022-08-05T15:10:05.849Z,38.85
2022-08-05T15:13:00.525Z,38.88
2022-08-05T15:15:54.929Z,38.88
2022-08-05T15:18:17.297Z,38.88
2022-08-05T15:20:46.033Z,38.86
2022-08-05T15:23:15.688Z,38.86
2022-08-05T15:25:52.362Z,38.84
2022-08-05T15:28:27.631Z,38.82
2022-08-05T15:30:56.548Z,38.84
2022-08-05T15:34:05.812Z,38.84
2022-08-05T15:36:16.807Z,38.83
2022-08-05T15:38:46.873Z,38.88
2022-08-05T15:41:21.428Z,38.88
2022-08-05T15:43:55.058Z,38.92
2022-08-05T15:46:25.109Z,38.93
2022-08-05T15:49:00.703Z,38.95
2022-08-05T15:52:03.838Z,38.89
2022-08-05T15:54:35.166Z,38.86
2022-08-05T15:57:07.367Z,38.84
2022-08-05T15:59:38.447Z,38.79
2022-08-05T16:02:09.601Z,38.73
2022-08-05T16:04:43.944Z,38.67
2022-08-05T16:07:13.302Z,38.63
2022-08-05T16:09:43.455Z,38.59
2022-08-05T16:12:12.328Z,38.51
2022-08-05T16:14:42.149Z,38.49
2022-08-05T16:17:12.740Z,38.43
2022-08-05T16:20:05.217Z,38.40
2022-08-05T16:22:34.464Z,38.37
2022-08-05T16:25:09.905Z,38.37
2022-08-05T16:27:59.791Z,38.36
2022-08-05T16:30:30.734Z,38.32
2022-08-05T16:33:01.401Z,38.33
2022-08-05T16:35:32.488Z,38.34
2022-08-05T16:38:23.707Z,38.34
2022-08-05T16:40:59.507Z,38.33
2022-08-05T16:43:31.809Z,38.31
2022-08-05T16:46:23.555Z,38.24
2022-08-05T16:48:52.043Z,38.23
2022-08-05T16:51:21.575Z,38.18
2022-08-05T16:54:03.458Z,38.15
2022-08-05T16:56:35.354Z,38.11
2022-08-05T16:59:09.017Z,38.07
2022-08-05T17:01:53.909Z,38.05
2022-08-05T17:04:27.324Z,38.01
2022-08-05T17:07:00.931Z,37.97
2022-08-05T17:09:38.965Z,37.92
2022-08-05T17:12:22.691Z,37.85
2022-08-05T17:15:09.256Z,37.76
2022-08-05T17:17:42.166Z,37.71
2022-08-05T17:20:14.971Z,37.64
2022-08-05T17:22:45.063Z,37.55
2022-08-05T17:25:33.532Z,37.48
2022-08-05T17:28:01.988Z,37.39
2022-08-05T17:30:30.676Z,37.29
2022-08-05T17:33:00.416Z,37.20
2022-08-05T17:35:32.525Z,37.10
2022-08-05T17:38:18.289Z,36.98
2022-08-05T17:40:47.701Z,36.89
2022-08-05T17:43:18.040Z,36.79
2022-08-05T17:46:06.788Z,36.69
2022-08-05T17:48:40.125Z,36.63
2022-08-05T17:51:11.599Z,36.56
2022-08-05T17:53:42.372Z,36.51
2022-08-05T17:56:11.705Z,36.45
2022-08-05T17:58:40.993Z,36.40
2022-08-05T18:01:10.273Z,36.34
2022-08-05T18:03:58.444Z,36.27
2022-08-05T18:06:29.416Z,36.19
2022-08-05T18:08:59.660Z,36.11
2022-08-05T18:11:32.857Z,36.05
2022-08-05T18:14:04.278Z,35.98
2022-08-05T18:16:35.217Z,35.87
2022-08-05T18:19:16.808Z,35.77
2022-08-05T18:22:09.010Z,35.65
2022-08-05T18:24:33.661Z,35.54
2022-08-05T18:27:02.020Z,35.43
2022-08-05T18:29:39.976Z,35.32
2022-08-05T18:32:12.620Z,35.21
2022-08-05T18:34:43.201Z,35.12
2022-08-05T18:37:12.339Z,35.01
2022-08-05T18:40:29.564Z,34.92
2022-08-05T18:42:29.700Z,34.79
2022-08-05T18:44:58.080Z,34.69
2022-08-05T18:47:28.487Z,34.57
2022-08-05T18:50:18.475Z,34.46
2022-08-05T18:52:51.029Z,34.33
2022-08-05T18:55:20.396Z,34.24
2022-08-05T18:57:53.187Z,34.16
2022-08-05T19:00:31.307Z,34.07
2022-08-05T19:03:03.552Z,34.00
2022-08-05T19:06:11.984Z,33.91
2022-08-05T19:08:30.520Z,33.83
2022-08-05T19:11:02.819Z,33.74
2022-08-05T19:13:36.145Z,33.67
2022-08-05T19:16:25.139Z,33.60
2022-08-05T19:18:56.441Z,33.50
2022-08-05T19:21:34.370Z,33.46
2022-08-05T19:24:08.929Z,33.35
2022-08-05T19:26:54.947Z,33.29
2022-08-05T19:29:36.340Z,33.20
2022-08-05T19:32:11.217Z,33.13
2022-08-05T19:34:40.082Z,33.07
2022-08-05T19:37:11.285Z,33.02
2022-08-05T19:39:45.922Z,32.99
2022-08-05T19:42:19.644Z,32.90
2022-08-05T19:45:06.522Z,32.81
2022-08-05T19:50:03.298Z,32.67
2022-08-05T19:52:33.119Z,32.64
2022-08-05T19:55:06.869Z,32.59
2022-08-05T19:57:48.900Z,32.57
2022-08-05T20:00:25.546Z,32.53
2022-08-05T20:02:54.257Z,32.49
2022-08-05T20:05:24.702Z,32.45
2022-08-05T20:07:58.937Z,32.42
2022-08-05T20:10:27.665Z,32.39
2022-08-05T20:12:57.352Z,32.36
2022-08-05T20:15:52.702Z,32.32
2022-08-05T20:18:33.186Z,32.28
2022-08-05T20:21:04.427Z,32.22
2022-08-05T20:23:39.602Z,32.18
2022-08-05T20:26:20.626Z,32.16
2022-08-05T20:28:51.477Z,32.13
2022-08-05T20:31:36.794Z,32.08
2022-08-05T20:34:12.544Z,32.05
2022-08-05T20:36:43.458Z,32.02
2022-08-05T20:39:16.657Z,31.98
2022-08-05T20:41:47.715Z,31.95
2022-08-05T20:44:30.129Z,31.91
2022-08-05T20:47:01.023Z,31.87
2022-08-05T20:49:29.457Z,31.85
2022-08-05T20:52:01.549Z,31.81
2022-08-05T20:54:43.052Z,31.80
2022-08-05T20:57:25.063Z,31.75
2022-08-05T21:00:40.351Z,31.71
2022-08-05T21:03:06.301Z,31.65
2022-08-05T21:05:54.762Z,31.48
2022-08-05T21:08:32.891Z,31.38
2022-08-05T21:11:12.758Z,31.19
2022-08-05T21:13:55.590Z,31.08
2022-08-05T21:16:29.429Z,30.86
2022-08-05T21:19:00.932Z,30.65
2022-08-05T21:21:43.665Z,30.43
2022-08-05T21:24:15.694Z,30.18
2022-08-05T21:26:53.480Z,29.98
2022-08-05T21:29:32.033Z,29.76
2022-08-05T21:32:02.415Z,29.61
2022-08-05T21:34:31.717Z,29.44
2022-08-05T21:37:01.855Z,29.26
2022-08-05T21:39:31.011Z,29.13
2022-08-05T21:42:05.226Z,28.99
2022-08-05T21:44:34.007Z,28.82
2022-08-05T21:47:02.795Z,28.74
2022-08-05T21:50:00.473Z,28.65
2022-08-05T21:52:27.647Z,28.51
2022-08-05T21:55:06.444Z,28.39
2022-08-05T21:57:37.700Z,28.28
2022-08-05T22:00:14.060Z,28.16
2022-08-05T22:02:43.652Z,28.09
2022-08-05T22:05:13.093Z,28.02
2022-08-05T22:07:59.216Z,27.91
2022-08-05T22:10:31.126Z,27.86
2022-08-05T22:14:04.858Z,27.77
2022-08-05T22:16:01.660Z,27.67
2022-08-05T22:18:36.489Z,27.62
2022-08-05T22:21:19.535Z,27.55
2022-08-05T22:24:09.115Z,27.48
2022-08-05T22:26:59.205Z,27.42
2022-08-05T22:29:30.688Z,27.37
2022-08-05T22:32:02.759Z,27.33
2022-08-05T22:34:32.719Z,27.28
2022-08-05T22:37:03.992Z,27.24
2022-08-05T22:39:34.678Z,27.18
2022-08-05T22:42:11.097Z,27.15
2022-08-05T22:44:53.580Z,27.10
2022-08-05T22:47:30.084Z,27.05
2022-08-05T22:50:19.698Z,27.00
2022-08-05T22:52:51.378Z,26.92
2022-08-05T22:55:22.410Z,26.86
2022-08-05T22:57:52.151Z,26.83
2022-08-05T23:00:23.699Z,26.77
2022-08-05T23:02:53.527Z,26.74
2022-08-05T23:05:23.168Z,26.71
2022-08-05T23:07:52.087Z,26.69
2022-08-05T23:10:23.959Z,26.66
2022-08-05T23:12:55.013Z,26.64
2022-08-05T23:15:27.063Z,26.60
2022-08-05T23:18:02.298Z,26.57
2022-08-05T23:20:33.850Z,26.53
2022-08-05T23:23:08.518Z,26.54
2022-08-05T23:25:52.816Z,26.49
2022-08-05T23:28:28.994Z,26.42
2022-08-05T23:31:15.667Z,26.36
2022-08-05T23:34:04.396Z,26.30
2022-08-05T23:36:39.942Z,26.25
2022-08-05T23:39:16.604Z,26.21
2022-08-05T23:41:56.273Z,26.17
2022-08-05T23:44:28.054Z,26.13
2022-08-05T23:47:02.458Z,26.10
2022-08-05T23:49:39.330Z,26.07
2022-08-05T23:52:30.542Z,26.03
2022-08-05T23:55:02.426Z,26.00
2022-08-05T23:57:34.103Z,25.99
